Terminal Aerodrome Forecast
Issued by NWS

Home | Current Version | Previous Version | Text Only | Print | Product List | Glossary Off
Versions: 1 2 3 4 5 6 7 8 9 10 11 12 13 14 15 16 17 18 19 20 21 22 23 24 25 26 27 28 29 30 31 32 33 34 35

000
FTUS43 KGRB 300900 AAB
TAFRHI
TAF AMD
KRHI 300914Z 3009/3106 VRB02KT 6SM BR SCT005 SCT035
      TEMPO 3009/3013 1SM BR BKN002
     FM301400 28006KT P6SM SCT100
     FM301800 29009KT P6SM VCSH BKN050=

USA.gov is the U.S. government's official web portal to all federal, state and local government web resources and services.